.
WxDataArchive / Data Records for 2012-10-16
2012-10-15 October 2012 2012-10-17

Data Records for Tuesday, 16 October 2012

Time	Temp	Chill	HIndex	Humid	Dewpt	 Wind 	HiWind	WindDir	Rain 	Barom 
-----	----	-----	------	-----	-----	------	------	-------	-----	----- 
00:00	39.6	39.6	39.6	89	36.6	0	0	---	0.00	29.982 
00:05	39.5	39.5	39.5	89	36.5	0	0	---	0.00	29.982 
00:10	39.3	39.3	39.3	89	36.3	0	0	---	0.00	29.982 
00:15	39.2	39.2	39.2	89	36.2	0	0	---	0.00	29.983 
00:20	39.2	39.2	39.2	89	36.2	0	0	---	0.00	29.983 
00:25	38.9	38.9	38.9	89	35.9	0	0	---	0.00	29.983 
00:30	38.8	38.8	38.8	89	35.8	0	0	---	0.00	29.985 
00:35	38.6	38.6	38.6	90	35.9	0	0	---	0.00	29.985 
00:40	38.5	38.5	38.5	90	35.8	0	0	---	0.00	29.985 
00:45	38.3	38.3	38.3	90	35.6	0	0	---	0.00	29.988 
00:50	38.2	38.2	38.2	90	35.5	0	0	---	0.00	29.988 
00:55	38.0	38.0	38.0	90	35.3	0	0	---	0.00	29.988 
01:00	37.9	37.9	37.9	90	35.2	0	0	---	0.00	29.991 
01:05	37.8	37.8	37.8	90	35.1	0	0	---	0.00	29.991 
01:10	37.6	37.6	37.6	90	34.9	0	0	---	0.00	29.991 
01:15	37.3	37.3	37.3	90	34.6	0	0	---	0.00	29.993 
01:20	37.2	37.2	37.2	90	34.5	0	0	---	0.00	29.993 
01:25	37.0	37.0	37.0	91	34.6	0	0	---	0.00	29.993 
01:30	36.9	36.9	36.9	91	34.5	0	0	---	0.00	29.989 
01:35	36.8	36.8	36.8	91	34.4	0	0	---	0.00	29.989 
01:40	36.6	36.6	36.6	91	34.2	0	0	---	0.00	29.989 
01:45	36.5	36.5	36.5	91	34.1	0	0	---	0.00	29.993 
01:50	36.5	36.5	36.5	91	34.1	0	0	---	0.00	29.993 
01:55	36.3	36.3	36.3	91	33.9	0	0	---	0.00	29.993 
02:00	36.3	36.3	36.3	91	33.9	0	0	---	0.00	29.987 
02:05	36.2	36.2	36.2	91	33.8	0	0	---	0.00	29.987 
02:10	36.0	36.0	36.0	91	33.6	0	0	---	0.00	29.987 
02:15	36.0	36.0	36.0	91	33.6	0	0	---	0.00	29.986 
02:20	35.9	35.9	35.9	92	33.8	0	0	---	0.00	29.986 
02:25	35.8	35.8	35.8	92	33.7	0	0	---	0.00	29.986 
02:30	35.8	35.8	35.8	92	33.7	0	0	---	0.00	29.985 
02:35	35.8	35.8	35.8	92	33.7	0	0	---	0.00	29.985 
02:40	35.9	35.9	35.9	92	33.8	0	0	---	0.00	29.985 
02:45	36.0	36.0	36.0	92	33.9	0	0	---	0.00	29.986 
02:50	36.0	36.0	36.0	92	33.9	0	0	---	0.00	29.986 
02:55	36.2	36.2	36.2	92	34.1	0	0	---	0.00	29.986 
03:00	36.2	36.2	36.2	92	34.1	0	0	---	0.00	29.985 
03:05	36.2	36.2	36.2	92	34.1	0	0	---	0.00	29.985 
03:10	36.0	36.0	36.0	92	33.9	0	0	---	0.00	29.985 
03:15	35.9	35.9	35.9	92	33.8	0	0	---	0.00	29.986 
03:20	35.8	35.8	35.8	92	33.7	0	0	---	0.00	29.986 
03:25	35.8	35.8	35.8	93	34.0	0	0	---	0.00	29.986 
03:30	35.6	35.6	35.6	92	33.5	0	0	---	0.00	29.987 
03:35	35.5	35.5	35.5	92	33.4	0	0	---	0.00	29.987 
03:40	35.5	35.5	35.5	93	33.7	0	0	---	0.00	29.987 
03:45	35.6	35.6	35.6	93	33.8	0	0	---	0.00	29.985 
03:50	35.6	35.6	35.6	93	33.8	0	0	---	0.00	29.985 
03:55	35.5	35.5	35.5	93	33.7	0	0	---	0.00	29.985 
04:00	35.2	35.2	35.2	92	33.1	0	0	---	0.00	29.985 
04:05	34.9	34.9	34.9	93	33.1	0	0	---	0.00	29.985 
04:10	34.9	34.9	34.9	93	33.1	0	0	---	0.00	29.985 
04:15	34.7	34.7	34.7	93	32.9	0	0	---	0.00	29.980 
04:20	34.7	34.7	34.7	93	32.9	0	0	---	0.00	29.980 
04:25	34.6	34.6	34.6	93	32.8	0	0	---	0.00	29.980 
04:30	34.4	34.4	34.4	93	32.6	0	0	---	0.00	29.981 
04:35	34.4	34.4	34.4	93	32.6	0	0	---	0.00	29.981 
04:40	34.4	34.4	34.4	93	32.6	0	0	---	0.00	29.981 
04:45	34.3	34.3	34.3	93	32.5	0	0	---	0.00	29.978 
04:50	34.1	34.1	34.1	93	32.3	0	0	---	0.00	29.978 
04:55	34.0	34.0	34.0	93	32.2	0	0	---	0.00	29.978 
05:00	33.8	33.8	33.8	93	32.0	0	0	---	0.00	29.982 
05:05	33.8	33.8	33.8	93	32.0	0	0	---	0.00	29.982 
05:10	33.7	33.7	33.7	93	31.9	0	0	---	0.00	29.982 
05:15	33.5	33.5	33.5	93	31.7	0	0	---	0.00	29.986 
05:20	33.5	33.5	33.5	93	31.7	0	0	---	0.00	29.986 
05:25	33.5	33.5	33.5	93	31.7	0	0	---	0.00	29.986 
05:30	33.4	33.4	33.4	93	31.6	0	0	---	0.00	29.988 
05:35	33.4	33.4	33.4	93	31.6	0	0	---	0.00	29.988 
05:40	33.4	33.4	33.4	93	31.6	0	0	---	0.00	29.988 
05:45	33.2	33.2	33.2	93	31.4	0	0	---	0.00	29.989 
05:50	33.2	33.2	33.2	93	31.4	0	0	---	0.00	29.989 
05:55	33.2	33.2	33.2	93	31.4	0	0	---	0.00	29.989 
06:00	33.2	33.2	33.2	93	31.4	0	0	---	0.00	29.990 
06:05	33.1	33.1	33.1	93	31.3	0	0	---	0.00	29.990 
06:10	33.1	33.1	33.1	93	31.3	0	0	---	0.00	29.990 
06:15	33.1	33.1	33.1	93	31.3	0	0	---	0.00	29.990 
06:20	32.9	32.9	32.9	93	31.1	0	0	---	0.00	29.990 
06:25	32.8	32.8	32.8	93	31.0	0	0	---	0.00	29.990 
06:30	32.7	32.7	32.7	93	30.9	0	0	---	0.00	29.992 
06:35	32.7	32.7	32.7	93	30.9	0	0	---	0.00	29.992 
06:40	32.5	32.5	32.5	93	30.7	0	0	---	0.00	29.992 
06:45	32.5	32.5	32.5	93	30.7	0	0	---	0.00	29.991 
06:50	32.4	32.4	32.4	93	30.6	0	0	---	0.00	29.991 
06:55	32.2	32.2	32.2	93	30.4	0	0	---	0.00	29.991 
07:00	32.1	32.1	32.1	93	30.3	0	0	---	0.00	29.987 
07:05	32.1	32.1	32.1	93	30.3	0	0	---	0.00	29.987 
07:10	32.1	32.1	32.1	93	30.3	0	0	---	0.00	29.987 
07:15	32.1	32.1	32.1	93	30.3	0	0	---	0.00	29.992 
07:20	32.1	32.1	32.1	94	30.6	0	0	---	0.00	29.992 
07:25	31.9	31.9	31.9	94	30.4	0	0	---	0.00	29.992 
07:30	31.9	31.9	31.9	94	30.4	0	0	---	0.00	29.994 
07:35	31.9	31.9	31.9	94	30.4	0	0	---	0.00	29.994 
07:40	31.9	31.9	31.9	94	30.4	0	0	---	0.00	29.994 
07:45	31.9	31.9	31.9	94	30.4	0	0	---	0.00	29.995 
07:50	31.8	31.8	31.8	94	30.3	0	0	---	0.00	29.995 
07:55	31.8	31.8	31.8	94	30.3	0	0	---	0.00	29.995 
08:00	31.8	31.8	31.8	94	30.3	0	0	---	0.00	29.988 
08:05	31.6	31.6	31.6	94	30.1	0	0	---	0.00	29.988 
08:10	31.6	31.6	31.6	94	30.1	0	0	---	0.00	29.988 
08:15	31.6	31.6	31.6	94	30.1	0	0	---	0.00	29.993 
08:20	31.6	31.6	31.6	94	30.1	0	0	---	0.00	29.993 
08:25	31.8	31.8	31.8	94	30.3	0	0	---	0.00	29.993 
08:30	31.9	31.9	31.9	94	30.4	0	0	---	0.00	29.995 
08:35	32.2	32.2	32.2	94	30.7	0	0	---	0.00	29.995 
08:40	32.5	32.5	32.5	94	31.0	0	0	---	0.00	29.995 
08:45	32.8	32.8	32.8	94	31.3	0	0	---	0.00	29.991 
08:50	33.2	33.2	33.2	94	31.7	0	0	---	0.00	29.991 
08:55	33.7	33.7	33.7	95	32.4	0	0	---	0.00	29.991 
09:00	34.1	34.1	34.1	95	32.8	0	0	---	0.00	29.994 
09:05	34.9	34.9	34.9	95	33.6	0	0	---	0.00	29.994 
09:10	35.5	35.5	35.5	95	34.2	0	0	---	0.00	29.994 
09:15	35.9	35.9	35.9	95	34.6	0	0	---	0.00	29.997 
09:20	36.5	36.5	36.5	95	35.2	0	0	---	0.00	29.997 
09:25	37.0	37.0	37.0	95	35.7	0	0	---	0.00	29.997 
09:30	37.9	37.9	37.9	95	36.6	0	0	---	0.00	30.000 
09:35	38.5	38.5	38.5	96	37.5	0	0	---	0.00	30.000 
09:40	39.1	39.1	39.1	96	38.1	0	0	---	0.00	30.000 
09:45	39.5	39.5	39.5	96	38.5	0	0	---	0.00	29.995 
09:50	40.1	40.1	40.1	96	39.1	0	0	---	0.00	29.995 
09:55	40.6	40.6	40.6	96	39.5	0	0	---	0.00	29.995 
10:00	41.3	41.3	41.3	96	40.2	0	0	---	0.00	29.990 
10:05	42.1	42.1	42.1	96	41.0	0	1	315	0.00	29.990 
10:10	43.1	43.1	43.1	96	42.0	0	1	315	0.00	29.990 
10:15	43.8	43.8	43.8	96	42.7	1	4	112	0.00	29.991 
10:20	44.5	44.5	44.5	94	42.9	0	2	112	0.00	29.991 
10:25	45.4	45.4	45.4	92	43.2	0	1	112	0.00	29.991 
10:30	46.5	46.5	46.5	89	43.4	0	1	112	0.00	29.989 
10:35	47.3	47.3	47.3	85	43.0	0	2	112	0.00	29.989 
10:40	47.9	47.9	47.9	83	43.0	0	1	112	0.00	29.989 
10:45	48.9	48.9	48.9	79	42.7	0	1	112	0.00	29.985 
10:50	49.5	49.5	49.5	73	41.2	1	3	112	0.00	29.985 
10:55	50.4	50.4	50.4	72	41.7	0	2	112	0.00	29.985 
11:00	50.8	50.8	50.8	68	40.6	1	3	112	0.00	29.974 
11:05	51.3	51.3	51.3	67	40.7	0	2	112	0.00	29.974 
11:10	51.7	51.7	51.7	66	40.7	1	3	112	0.00	29.974 
11:15	52.2	52.2	52.2	62	39.6	1	4	112	0.00	29.966 
11:20	52.5	52.5	52.5	62	39.9	1	3	112	0.00	29.966 
11:25	52.8	52.8	52.8	60	39.3	1	2	112	0.00	29.966 
11:30	53.2	53.2	53.2	61	40.1	1	3	112	0.00	29.955 
11:35	53.5	53.5	53.5	58	39.1	1	3	112	0.00	29.955 
11:40	53.8	53.8	53.8	59	39.8	1	5	112	0.00	29.955 
11:45	54.4	54.4	54.4	61	41.2	0	2	112	0.00	29.952 
11:50	54.7	54.7	54.7	60	41.1	0	2	112	0.00	29.952 
11:55	55.1	55.1	55.1	57	40.1	1	4	112	0.00	29.952 
12:00	55.3	55.3	55.3	58	40.8	1	4	112	0.00	29.958 
12:05	55.7	55.7	55.7	59	41.6	0	2	112	0.00	29.958 
12:10	56.2	56.2	56.2	56	40.7	0	2	112	0.00	29.958 
12:15	56.3	56.3	56.3	55	40.3	1	4	112	0.00	29.955 
12:20	56.5	56.5	56.5	54	40.1	1	3	112	0.00	29.955 
12:25	56.6	56.6	56.6	55	40.6	1	4	112	0.00	29.955 
12:30	56.7	56.7	56.7	53	39.8	1	4	112	0.00	29.952 
12:35	56.7	56.7	56.7	52	39.3	1	2	112	0.00	29.952 
12:40	56.9	56.9	56.9	53	39.9	1	3	112	0.00	29.952 
12:45	57.0	57.0	57.0	55	41.0	1	3	112	0.00	29.936 
12:50	57.3	57.3	57.3	55	41.3	1	3	112	0.00	29.936 
12:55	57.3	57.3	57.3	51	39.3	2	5	112	0.00	29.936 
13:00	57.2	57.2	57.2	51	39.2	1	3	90	0.00	29.931 
13:05	57.5	57.5	57.5	54	41.0	1	4	90	0.00	29.931 
13:10	57.8	57.8	57.8	52	40.3	1	3	225	0.00	29.931 
13:15	58.1	58.1	58.1	52	40.6	1	2	225	0.00	29.917 
13:20	58.4	58.4	58.4	52	40.8	1	3	225	0.00	29.917 
13:25	58.6	58.6	58.6	50	40.0	1	3	135	0.00	29.917 
13:30	58.9	58.9	58.9	51	40.8	1	4	68	0.00	29.914 
13:35	59.0	59.0	59.0	52	41.4	0	3	248	0.00	29.914 
13:40	59.2	59.2	59.2	51	41.1	1	3	90	0.00	29.914 
13:45	59.0	59.0	59.0	48	39.3	2	5	225	0.00	29.907 
13:50	58.9	58.9	58.9	49	39.8	2	5	90	0.00	29.907 
13:55	58.9	58.9	58.9	52	41.3	1	5	90	0.00	29.907 
14:00	59.2	59.2	59.2	50	40.6	1	3	270	0.00	29.899 
14:05	59.5	59.5	59.5	49	40.3	1	4	90	0.00	29.899 
14:10	59.6	59.6	59.6	50	40.9	1	3	68	0.00	29.899 
14:15	59.8	59.8	59.8	50	41.1	1	4	225	0.00	29.887 
14:20	59.6	59.6	59.6	48	39.9	2	6	225	0.00	29.887 
14:25	59.6	59.6	59.6	50	40.9	1	7	112	0.00	29.887 
14:30	59.9	59.9	59.9	48	40.2	1	3	270	0.00	29.874 
14:35	60.1	60.1	60.1	48	40.3	0	2	225	0.00	29.874 
14:40	60.4	60.4	60.4	48	40.6	1	4	45	0.00	29.874 
14:45	60.4	60.4	60.4	48	40.6	1	6	90	0.00	29.866 
14:50	60.5	60.5	60.5	49	41.2	0	3	270	0.00	29.866 
14:55	60.9	60.9	60.9	50	42.1	0	2	270	0.00	29.866 
15:00	61.0	61.0	61.0	45	39.5	2	6	90	0.00	29.863 
15:05	61.2	61.2	61.2	46	40.3	0	4	68	0.00	29.863 
15:10	61.3	61.3	61.3	46	40.3	1	3	90	0.00	29.863 
15:15	61.5	61.5	61.5	47	41.1	1	4	90	0.00	29.855 
15:20	61.6	61.6	61.6	46	40.6	1	3	90	0.00	29.855 
15:25	61.6	61.6	61.6	45	40.0	1	3	90	0.00	29.855 
15:30	61.8	61.8	61.8	45	40.2	1	4	90	0.00	29.843 
15:35	62.0	62.0	62.0	45	40.4	1	4	90	0.00	29.843 
15:40	62.1	62.1	62.1	46	41.1	1	3	22	0.00	29.843 
15:45	62.3	62.3	62.3	46	41.3	1	4	68	0.00	29.835 
15:50	62.4	62.4	62.4	45	40.8	1	4	22	0.00	29.835 
15:55	62.6	62.6	62.6	45	41.0	1	4	45	0.00	29.835 
16:00	62.7	62.7	62.7	45	41.0	1	5	270	0.00	29.827 
16:05	62.7	62.7	62.7	43	39.9	1	4	112	0.00	29.827 
16:10	62.6	62.6	62.6	43	39.8	2	7	90	0.00	29.827 
16:15	62.4	62.4	62.4	43	39.6	2	7	90	0.00	29.822 
16:20	62.4	62.4	62.4	43	39.6	2	6	68	0.00	29.822 
16:25	62.4	62.4	62.4	43	39.6	2	4	68	0.00	29.822 
16:30	62.4	62.4	62.4	43	39.6	2	7	45	0.00	29.816 
16:35	62.4	62.4	62.4	44	40.2	1	4	68	0.00	29.816 
16:40	62.4	62.4	62.4	43	39.6	1	4	68	0.00	29.816 
16:45	62.4	62.4	62.4	43	39.6	2	5	112	0.00	29.811 
16:50	62.4	62.4	62.4	43	39.6	2	9	90	0.00	29.811 
16:55	62.3	62.3	62.3	43	39.5	1	4	90	0.00	29.811 
17:00	62.4	62.4	62.4	43	39.6	1	5	22	0.00	29.806 
17:05	62.4	62.4	62.4	43	39.6	1	3	45	0.00	29.806 
17:10	62.4	62.4	62.4	43	39.6	1	6	248	0.00	29.806 
17:15	62.3	62.3	62.3	43	39.5	0	2	22	0.00	29.803 
17:20	62.1	62.1	62.1	43	39.3	1	5	90	0.00	29.803 
17:25	62.0	62.0	62.0	44	39.8	1	5	248	0.00	29.803 
17:30	61.8	61.8	61.8	44	39.7	1	4	90	0.00	29.792 
17:35	61.8	61.8	61.8	43	39.1	1	4	112	0.00	29.792 
17:40	61.8	61.8	61.8	44	39.7	1	5	112	0.00	29.792 
17:45	61.6	61.6	61.6	44	39.5	1	5	90	0.00	29.784 
17:50	61.6	61.6	61.6	44	39.5	1	7	90	0.00	29.784 
17:55	61.5	61.5	61.5	45	40.0	1	3	45	0.00	29.784 
18:00	61.3	61.3	61.3	45	39.8	1	3	90	0.00	29.776 
18:05	61.2	61.2	61.2	45	39.7	1	3	90	0.00	29.776 
18:10	61.0	61.0	61.0	46	40.1	1	4	90	0.00	29.776 
18:15	60.9	60.9	60.9	46	40.0	1	3	90	0.00	29.777 
18:20	60.7	60.7	60.7	46	39.8	1	3	90	0.00	29.777 
18:25	60.4	60.4	60.4	47	40.1	1	3	90	0.00	29.777 
18:30	60.2	60.2	60.2	47	39.9	1	4	112	0.00	29.767 
18:35	60.1	60.1	60.1	47	39.8	1	4	112	0.00	29.767 
18:40	59.9	59.9	59.9	48	40.2	0	3	90	0.00	29.767 
18:45	59.8	59.8	59.8	49	40.6	0	2	90	0.00	29.761 
18:50	59.5	59.5	59.5	49	40.3	0	3	90	0.00	29.761 
18:55	59.3	59.3	59.3	50	40.7	0	2	90	0.00	29.761 
19:00	59.0	59.0	59.0	50	40.4	0	2	90	0.00	29.761 
19:05	58.9	58.9	58.9	50	40.3	0	2	90	0.00	29.761 
19:10	58.7	58.7	58.7	51	40.6	0	2	90	0.00	29.761 
19:15	58.4	58.4	58.4	51	40.3	0	1	90	0.00	29.753 
19:20	58.3	58.3	58.3	52	40.8	0	2	90	0.00	29.753 
19:25	58.1	58.1	58.1	52	40.6	0	3	90	0.00	29.753 
19:30	58.0	58.0	58.0	53	41.0	0	2	90	0.00	29.749 
19:35	57.8	57.8	57.8	53	40.8	0	2	90	0.00	29.749 
19:40	57.8	57.8	57.8	54	41.3	0	3	90	0.00	29.749 
19:45	57.6	57.6	57.6	54	41.1	0	3	90	0.00	29.748 
19:50	57.5	57.5	57.5	54	41.0	0	1	90	0.00	29.748 
19:55	57.5	57.5	57.5	54	41.0	0	2	90	0.00	29.748 
20:00	57.2	57.2	57.2	55	41.2	0	2	90	0.00	29.749 
20:05	57.0	57.0	57.0	55	41.0	0	3	90	0.00	29.749 
20:10	56.9	56.9	56.9	56	41.4	0	1	90	0.00	29.749 
20:15	56.6	56.6	56.6	57	41.5	0	2	90	0.00	29.747 
20:20	56.5	56.5	56.5	57	41.5	0	2	90	0.00	29.747 
20:25	56.5	56.5	56.5	58	41.9	0	2	90	0.00	29.747 
20:30	56.5	56.5	56.5	58	41.9	0	2	90	0.00	29.748 
20:35	56.6	56.6	56.6	58	42.0	0	2	90	0.00	29.748 
20:40	56.6	56.6	56.6	57	41.5	0	3	90	0.00	29.748 
20:45	56.6	56.6	56.6	57	41.5	0	2	90	0.00	29.748 
20:50	56.6	56.6	56.6	57	41.5	1	3	90	0.00	29.748 
20:55	56.6	56.6	56.6	57	41.5	1	3	90	0.00	29.748 
21:00	56.5	56.5	56.5	58	41.9	0	2	90	0.00	29.746 
21:05	56.5	56.5	56.5	58	41.9	0	3	90	0.00	29.746 
21:10	56.3	56.3	56.3	58	41.7	0	2	90	0.00	29.746 
21:15	56.2	56.2	56.2	58	41.6	1	3	90	0.00	29.739 
21:20	56.0	56.0	56.0	58	41.4	1	3	112	0.00	29.739 
21:25	56.0	56.0	56.0	58	41.4	0	2	112	0.00	29.739 
21:30	56.0	56.0	56.0	59	41.9	0	2	112	0.00	29.741 
21:35	56.2	56.2	56.2	58	41.6	1	4	90	0.00	29.741 
21:40	56.2	56.2	56.2	59	42.1	1	3	90	0.00	29.741 
21:45	56.2	56.2	56.2	59	42.1	1	2	112	0.00	29.740 
21:50	56.2	56.2	56.2	59	42.1	1	4	112	0.00	29.740 
21:55	56.2	56.2	56.2	59	42.1	1	3	90	0.00	29.740 
22:00	56.2	56.2	56.2	59	42.1	1	4	90	0.00	29.739 
22:05	56.2	56.2	56.2	59	42.1	1	4	68	0.00	29.739 
22:10	56.2	56.2	56.2	59	42.1	1	4	90	0.00	29.739 
22:15	56.2	56.2	56.2	59	42.1	0	3	90	0.00	29.731 
22:20	56.2	56.2	56.2	59	42.1	1	3	90	0.00	29.731 
22:25	56.2	56.2	56.2	58	41.6	1	3	90	0.00	29.731 
22:30	56.2	56.2	56.2	58	41.6	1	4	90	0.00	29.733 
22:35	56.3	56.3	56.3	58	41.7	1	5	112	0.00	29.733 
22:40	56.3	56.3	56.3	58	41.7	1	3	112	0.00	29.733 
22:45	56.3	56.3	56.3	58	41.7	1	3	90	0.00	29.727 
22:50	56.3	56.3	56.3	58	41.7	1	4	112	0.00	29.727 
22:55	56.3	56.3	56.3	58	41.7	1	4	45	0.00	29.727 
23:00	56.3	56.3	56.3	58	41.7	1	4	68	0.00	29.727 
23:05	56.3	56.3	56.3	58	41.7	1	4	90	0.00	29.727 
23:10	56.3	56.3	56.3	58	41.7	1	2	112	0.00	29.727 
23:15	56.5	56.5	56.5	58	41.9	1	4	68	0.00	29.727 
23:20	56.5	56.5	56.5	58	41.9	1	3	68	0.00	29.727 
23:25	56.5	56.5	56.5	58	41.9	1	3	68	0.00	29.727 
23:30	56.5	56.5	56.5	58	41.9	1	3	90	0.00	29.728 
23:35	56.6	56.6	56.6	58	42.0	1	6	90	0.00	29.728 
23:40	56.6	56.6	56.6	58	42.0	0	3	90	0.00	29.728 
23:45	56.6	56.6	56.6	58	42.0	0	1	90	0.00	29.728 
23:50	56.5	56.5	56.5	58	41.9	0	1	90	0.00	29.728 
23:55	56.5	56.5	56.5	58	41.9	0	2	90	0.00	29.728 

CoCoRaHS
IN-AL-39
A2 Web Hosting
Creative Commons License
GoDaddy
search engine by freefind advanced

loaded 2018-11-16 00:13:13 • last modified 2010-11-18 10:43:29
Privacy PolicyDisclaimer
• wx.awcolley.com is powered by PmWiki v.2002016 •
• all content (unless otherwise noted) © 2018 A W Colley